Weather History for Stafford, VA

Change the Weather History Date:

Monday, November 18, 2013

  Actual Average (KNYG) Record (KNYG)
Temperature  
Mean Temperature 59 °F -  
Max Temperature 69 °F 53 °F 70 °F (2013)
Min Temperature 49 °F 36 °F 23 °F (2014)
Degree Days  
Heating Degree Days 6    
Growing Degree Days 9 (Base 50)    
Moisture  
Dew Point 42 °F    
Average Humidity 58    
Maximum Humidity 100    
Minimum Humidity 23    
Precipitation  
Precipitation 0.12 in - - ()
Sea Level Pressure  
Sea Level Pressure 29.84 in    
Wind  
Wind Speed 6 mph (West)    
Max Wind Speed 17 mph    
Max Gust Speed 29 mph    
Visibility 10 miles    
Events Rain    
Averages and records for this station are not official NWS values.
T = Trace of Precipitation, MM = Missing Value Source: NWS Daily Summary

Daily Weather History Graph

Daily Weather History Graph

Search for Another Location

Airport:

Trip Planner

Search our weather history database for the weather conditions in past years. The results will help you decide how hot, cold, wet, or windy it might be!

Date:

Astronomy

Nov. 18, 2013 Rise Set
Actual Time 6:54 AM EST 4:54 PM EST
Civil Twilight 6:26 AM EST 5:23 PM EST
Nautical Twilight 5:54 AM EST 5:55 PM EST
Astronomical Twilight 5:22 AM EST 6:26 PM EST
Moon 5:55 PM EST 7:41 AM EST
Length of Visible Light 10h 56m
Length of Day
10h 00m
Full, 99% of the Moon is Illuminated
Nov 18
Full
Nov 25
Last Quarter
Dec 2
New
Dec 9
First Quarter
Dec 17
Full

Hourly Weather History & Observations

Time (EST) Temp. Dew Point Humidity Pressure Visibility Wind Dir Wind Speed Gust Speed Precip Events Conditions
12:15 AM 62.6 °F 62.6 °F 100% 29.82 in 10.0 mi SSW 5.8 mph - N/A   Overcast
12:35 AM 62.8 °F 62.8 °F 100% 29.80 in 4.0 mi South 6.9 mph - N/A Rain Rain
12:55 AM 63.0 °F 63.0 °F 100% 29.79 in 4.0 mi South 4.6 mph - N/A   Drizzle
1:15 AM 63.0 °F 63.0 °F 100% 29.78 in 4.0 mi South 5.8 mph - N/A   Drizzle
1:35 AM 63.5 °F 63.5 °F 100% 29.76 in 5.0 mi South 6.9 mph - N/A   Light Drizzle
1:55 AM 64.2 °F 64.2 °F 100% 29.77 in 10.0 mi SSW 5.8 mph - N/A   Overcast
2:15 AM 64.8 °F 64.8 °F 100% 29.77 in 7.0 mi SSW 5.8 mph - N/A   Overcast
2:35 AM 65.3 °F 65.3 °F 100% 29.77 in 10.0 mi SSW 6.9 mph - N/A   Overcast
2:55 AM 65.7 °F 65.7 °F 100% 29.77 in 10.0 mi WSW 4.6 mph - N/A   Light Drizzle
3:15 AM 60.3 °F 60.3 °F 100% 29.80 in 4.0 mi WNW 17.3 mph 28.8 mph 0.11 in Rain Rain
3:35 AM 60.3 °F 60.3 °F 100% 29.79 in 10.0 mi WNW 5.8 mph - 0.12 in   Overcast
3:55 AM 59.2 °F 59.2 °F 100% 29.79 in 10.0 mi WNW 3.5 mph - 0.12 in   Overcast
4:15 AM 58.1 °F 58.1 °F 100% 29.79 in 10.0 mi Calm Calm - N/A   Overcast
4:35 AM 57.9 °F 57.9 °F 100% 29.80 in 7.0 mi Calm Calm - N/A   Overcast
4:55 AM 58.3 °F 58.3 °F 100% 29.80 in 10.0 mi Calm Calm - N/A   Overcast
5:15 AM 58.3 °F 58.3 °F 100% 29.80 in 10.0 mi Calm Calm - N/A   Overcast
5:35 AM 58.1 °F 58.1 °F 100% 29.81 in 10.0 mi Calm Calm - N/A   Overcast
5:55 AM 57.7 °F 57.7 °F 100% 29.80 in 10.0 mi Calm Calm - N/A   Overcast
6:15 AM 57.4 °F 57.4 °F 100% 29.82 in 7.0 mi Calm Calm - N/A   Overcast
6:35 AM 57.4 °F 57.4 °F 100% 29.82 in 10.0 mi Calm Calm - N/A   Overcast
6:55 AM 57.4 °F 57.4 °F 100% 29.83 in 10.0 mi Calm Calm - N/A   Overcast
7:15 AM 57.7 °F 57.7 °F 100% 29.84 in 10.0 mi Calm Calm - N/A   Overcast
7:35 AM 56.8 °F 56.8 °F 100% 29.84 in 10.0 mi West 3.5 mph - N/A   Overcast
7:55 AM 56.1 °F 56.1 °F 100% 29.85 in 10.0 mi West 5.8 mph - N/A   Scattered Clouds
8:15 AM 59.2 °F 54.9 °F 86% 29.85 in 10.0 mi WSW 5.8 mph - N/A   Clear
8:35 AM 61.3 °F 52.7 °F 73% 29.86 in 10.0 mi Calm Calm - N/A   Clear
8:55 AM 63.0 °F 53.1 °F 70% 29.86 in 10.0 mi South 3.5 mph - N/A   Clear
9:15 AM 63.9 °F 49.8 °F 60% 29.86 in 10.0 mi West 6.9 mph - N/A   Clear
9:35 AM 64.6 °F 46.0 °F 51% 29.86 in 10.0 mi WSW 6.9 mph - N/A   Clear
9:55 AM 65.5 °F 43.5 °F 45% 29.86 in 10.0 mi WSW 9.2 mph - N/A   Clear
10:15 AM 66.4 °F 40.3 °F 38% 29.85 in 10.0 mi WSW 12.7 mph 17.3 mph N/A   Clear
10:35 AM 66.4 °F 38.5 °F 36% 29.84 in 10.0 mi West 15.0 mph 19.6 mph N/A   Clear
10:55 AM 67.1 °F 38.1 °F 34% 29.84 in 10.0 mi SW 6.9 mph - N/A   Clear
11:15 AM 67.1 °F 38.3 °F 35% 29.84 in 10.0 mi West 5.8 mph 19.6 mph N/A   Clear
11:35 AM 67.3 °F 37.0 °F 33% 29.82 in 10.0 mi WSW 11.5 mph 18.4 mph N/A   Clear
11:55 AM 68.2 °F 37.4 °F 32% 29.82 in 10.0 mi WSW 6.9 mph - N/A   Clear
12:15 PM 68.2 °F 36.5 °F 31% 29.81 in 10.0 mi West 15.0 mph 21.9 mph N/A   Clear
12:35 PM 68.2 °F 34.9 °F 29% 29.81 in 10.0 mi WSW 11.5 mph 17.3 mph N/A   Clear
12:55 PM 68.9 °F 34.9 °F 29% 29.81 in 10.0 mi West 9.2 mph 19.6 mph N/A   Clear
1:15 PM 68.7 °F 33.8 °F 28% 29.81 in 10.0 mi WSW 10.4 mph 18.4 mph N/A   Clear
1:35 PM 69.1 °F 34.9 °F 28% 29.80 in 10.0 mi West 13.8 mph - N/A   Clear
1:55 PM 68.2 °F 34.7 °F 29% 29.80 in 10.0 mi WSW 9.2 mph - N/A   Clear
2:15 PM 68.4 °F 35.4 °F 30% 29.79 in 10.0 mi SW 10.4 mph 18.4 mph N/A   Clear
2:35 PM 68.4 °F 35.1 °F 29% 29.80 in 10.0 mi WSW 11.5 mph 18.4 mph N/A   Clear
2:55 PM 68.4 °F 33.6 °F 28% 29.79 in 10.0 mi WSW 5.8 mph - N/A   Clear
3:15 PM 68.4 °F 32.0 °F 26% 29.79 in 10.0 mi West 8.1 mph - N/A   Clear
3:35 PM 68.2 °F 30.4 °F 24% 29.80 in 10.0 mi West 10.4 mph 17.3 mph N/A   Clear
3:55 PM 67.6 °F 29.5 °F 24% 29.80 in 10.0 mi West 8.1 mph 18.4 mph N/A   Clear
4:15 PM 67.1 °F 28.9 °F 24% 29.80 in 10.0 mi WSW 9.2 mph - N/A   Clear
4:35 PM 66.4 °F 27.5 °F 23% 29.81 in 10.0 mi WSW 5.8 mph - N/A   Clear
4:55 PM 64.6 °F 25.7 °F 23% 29.82 in 10.0 mi West 6.9 mph - N/A   Clear
5:15 PM 63.5 °F 25.3 °F 23% 29.83 in 10.0 mi West 6.9 mph - N/A   Clear
5:35 PM 62.4 °F 25.7 °F 25% 29.84 in 10.0 mi West 3.5 mph - N/A   Clear
5:55 PM 58.5 °F 28.4 °F 32% 29.85 in 10.0 mi WNW 3.5 mph - N/A   Clear
6:15 PM 56.8 °F 28.2 °F 33% 29.86 in 10.0 mi WNW 3.5 mph - N/A   Clear
6:35 PM 56.1 °F 28.4 °F 35% 29.87 in 10.0 mi WNW 4.6 mph - N/A   Clear
6:55 PM 54.9 °F 29.7 °F 38% 29.88 in 10.0 mi NW 5.8 mph - N/A   Clear
7:15 PM 53.8 °F 29.7 °F 40% 29.89 in 10.0 mi WNW 5.8 mph - N/A   Clear
7:35 PM 51.6 °F 30.4 °F 44% 29.90 in 10.0 mi NW 9.2 mph - N/A   Clear
7:55 PM 55.0 °F 29.1 °F 37% 29.91 in 10.0 mi WNW 8.1 mph - N/A   Clear
8:15 PM 54.3 °F 29.7 °F 39% 29.92 in 10.0 mi WNW 6.9 mph - N/A   Clear
8:35 PM 55.0 °F 28.4 °F 36% 29.94 in 10.0 mi NW 6.9 mph - N/A   Clear
8:55 PM 53.8 °F 28.6 °F 38% 29.94 in 10.0 mi NW 6.9 mph - N/A   Clear
9:15 PM 53.1 °F 28.8 °F 39% 29.95 in 10.0 mi NW 10.4 mph - N/A   Clear
9:35 PM 52.3 °F 29.1 °F 41% 29.95 in 10.0 mi WNW 9.2 mph - N/A   Clear
9:55 PM 51.1 °F 27.9 °F 41% 29.96 in 10.0 mi WNW 4.6 mph - N/A   Clear
10:15 PM 51.4 °F 26.4 °F 38% 29.96 in 10.0 mi WNW 9.2 mph - N/A   Clear
10:35 PM 52.3 °F 25.5 °F 35% 29.97 in 10.0 mi WNW 8.1 mph - N/A   Clear
10:55 PM 49.5 °F 27.5 °F 43% 29.97 in 10.0 mi NW 9.2 mph - N/A   Clear
11:15 PM 49.6 °F 26.1 °F 40% 29.98 in 10.0 mi North 4.6 mph - N/A   Clear
11:35 PM 50.9 °F 25.7 °F 38% 29.99 in 10.0 mi NNW 8.1 mph - N/A   Clear
11:55 PM 49.8 °F 27.9 °F 43% 30.00 in 10.0 mi NW 10.4 mph - N/A   Clear